Time;durP1;ratioP1;P1;durP2;ratioP2;P2;SDS_P1;SDS_P2;PMS_P1;PMS_P2;Temp;Humidity;BMP_temperature;BMP_pressure;BME280_temperature;BME280_humidity;BME280_pressure;Samples;Min_cycle;Max_cycle;Signal;HPM_P1;HPM_P2
2021/03/04 00:02:57;;;;;;;62.88;26.30;;;;;;;5.09;63.55;99239.91;2178881;81;21150;-68
2021/03/04 00:05:59;;;;;;;61.05;26.90;;;;;;;5.04;64.17;99241.80;2178686;81;21296;-68
2021/03/04 00:09:01;;;;;;;57.53;23.92;;;;;;;5.02;63.96;99228.01;2178644;81;21292;-68
2021/03/04 00:12:03;;;;;;;56.45;24.07;;;;;;;4.95;64.23;99225.20;2178832;82;21268;-67
2021/03/04 00:15:05;;;;;;;58.17;26.07;;;;;;;4.92;64.62;99224.84;2178715;81;21285;-68
2021/03/04 00:18:07;;;;;;;58.13;24.37;;;;;;;4.87;64.57;99212.45;2178646;81;21281;-68
2021/03/04 00:21:09;;;;;;;59.53;24.95;;;;;;;4.81;64.85;99211.33;2178649;81;21257;-69
2021/03/04 00:24:12;;;;;;;59.75;25.48;;;;;;;4.78;65.10;99207.53;2178600;81;21297;-67
2021/03/04 00:27:14;;;;;;;57.53;25.52;;;;;;;4.74;64.62;99203.32;2178606;81;21293;-67
2021/03/04 00:30:16;;;;;;;59.38;23.87;;;;;;;4.68;64.91;99195.27;2178621;81;21301;-68
2021/03/04 00:33:18;;;;;;;60.55;26.40;;;;;;;4.63;64.97;99195.41;2178684;82;21313;-68
2021/03/04 00:36:20;;;;;;;55.50;25.50;;;;;;;4.58;64.76;99193.39;2178962;81;21145;-67
2021/03/04 00:39:22;;;;;;;66.95;27.87;;;;;;;4.54;65.00;99190.94;2178633;81;21273;-67
2021/03/04 00:42:26;;;;;;;56.35;26.30;;;;;;;4.45;64.81;99183.85;2178534;82;21131;-67
2021/03/04 00:45:28;;;;;;;58.80;25.70;;;;;;;4.36;64.95;99185.41;2178593;81;21119;-67
2021/03/04 00:48:31;;;;;;;56.23;24.85;;;;;;;4.27;65.03;99172.72;2178623;81;21272;-67
2021/03/04 00:51:33;;;;;;;62.85;26.55;;;;;;;4.20;65.81;99164.70;2178675;81;21290;-67
2021/03/04 00:54:35;;;;;;;56.98;24.45;;;;;;;4.15;65.76;99166.11;2178652;82;21714;-68
2021/03/04 00:57:37;;;;;;;55.15;26.10;;;;;;;4.08;66.47;99165.46;2178603;81;21292;-67
2021/03/04 01:00:39;;;;;;;57.95;25.85;;;;;;;4.04;65.90;99148.27;2178724;82;21284;-69
2021/03/04 01:03:41;;;;;;;60.73;25.32;;;;;;;3.99;66.13;99149.71;2178610;81;21158;-67
2021/03/04 01:06:43;;;;;;;61.90;26.20;;;;;;;3.95;66.20;99146.80;2178599;81;21261;-68
2021/03/04 01:09:45;;;;;;;61.37;26.87;;;;;;;3.91;66.24;99137.84;2178679;81;21150;-67
2021/03/04 01:12:48;;;;;;;60.88;27.32;;;;;;;3.86;66.63;99136.66;2178587;82;21701;-67
2021/03/04 01:15:50;;;;;;;58.48;25.52;;;;;;;3.78;66.71;99130.41;2178577;81;21301;-67
2021/03/04 01:18:52;;;;;;;62.10;28.12;;;;;;;3.73;67.00;99136.16;2178699;81;21308;-67
2021/03/04 01:21:54;;;;;;;63.65;27.05;;;;;;;3.63;66.74;99128.23;2178530;82;21127;-67
2021/03/04 01:24:56;;;;;;;63.95;27.95;;;;;;;3.57;67.08;99125.36;2178664;81;21134;-67
2021/03/04 01:27:58;;;;;;;61.18;26.73;;;;;;;3.50;67.44;99121.23;2178532;81;21281;-67
2021/03/04 01:31:00;;;;;;;61.48;27.73;;;;;;;3.47;67.63;99114.84;2178579;81;21281;-68
2021/03/04 01:34:02;;;;;;;66.67;27.45;;;;;;;3.44;67.40;99107.14;2178643;81;21245;-67
2021/03/04 01:37:04;;;;;;;62.75;26.65;;;;;;;3.42;67.61;99106.31;2178534;81;21273;-67
2021/03/04 01:40:06;;;;;;;62.03;27.13;;;;;;;3.44;67.11;99098.07;2178562;81;21261;-68
2021/03/04 01:43:08;;;;;;;60.70;26.55;;;;;;;3.46;67.24;99096.27;2178545;81;21281;-68
2021/03/04 01:46:10;;;;;;;59.88;26.90;;;;;;;3.47;67.34;99096.22;2178511;81;21712;-67
2021/03/04 01:49:13;;;;;;;61.70;27.75;;;;;;;3.50;67.59;99091.86;2178776;81;21118;-67
2021/03/04 01:52:15;;;;;;;59.75;26.33;;;;;;;3.50;67.87;99084.08;2178487;82;21292;-69
2021/03/04 01:55:17;;;;;;;61.53;27.77;;;;;;;3.49;67.63;99078.02;2178792;81;21202;-68
2021/03/04 01:58:19;;;;;;;63.70;27.52;;;;;;;3.51;67.63;99080.61;2178575;81;21554;-68
2021/03/04 02:01:21;;;;;;;65.42;27.90;;;;;;;3.51;67.80;99067.18;2178548;81;21281;-69
2021/03/04 02:04:25;;;;;;;65.72;28.38;;;;;;;3.54;68.12;99063.66;2171443;81;21293;-68
2021/03/04 02:07:27;;;;;;;65.62;28.70;;;;;;;3.55;68.75;99058.84;2161142;82;21135;-68
2021/03/04 02:10:29;;;;;;;72.30;30.37;;;;;;;3.58;68.63;99055.73;2161203;82;21745;-69
2021/03/04 02:13:31;;;;;;;71.80;29.27;;;;;;;3.63;69.00;99046.52;2161083;82;21147;-68
2021/03/04 02:16:34;;;;;;;69.07;30.60;;;;;;;3.65;70.30;99046.05;2160971;82;21281;-67
2021/03/04 02:19:36;;;;;;;62.55;28.15;;;;;;;3.73;70.11;99047.10;2161149;82;21159;-67
2021/03/04 02:22:38;;;;;;;66.65;29.52;;;;;;;3.73;70.58;99050.99;2161076;82;21167;-68
2021/03/04 02:25:40;;;;;;;68.62;30.02;;;;;;;3.74;70.17;99049.65;2161085;82;21131;-67
2021/03/04 02:28:42;;;;;;;68.00;29.05;;;;;;;3.72;70.41;99048.86;2140430;82;21713;-68
2021/03/04 02:31:44;;;;;;;64.27;28.92;;;;;;;3.75;70.66;99038.38;2161421;82;21325;-67
2021/03/04 02:34:46;;;;;;;67.42;29.12;;;;;;;3.79;69.88;99030.91;2161095;82;21273;-70
2021/03/04 02:37:48;;;;;;;65.60;28.83;;;;;;;3.84;70.14;99020.39;2161180;82;21566;-68
2021/03/04 02:40:50;;;;;;;67.95;30.45;;;;;;;3.89;69.99;99018.95;2161403;82;21310;-68
2021/03/04 02:43:52;;;;;;;66.05;28.80;;;;;;;3.91;69.52;99005.03;2161075;82;21634;-69
2021/03/04 02:46:54;;;;;;;62.23;28.98;;;;;;;3.94;70.04;99006.69;2161092;82;21139;-69
2021/03/04 02:49:56;;;;;;;65.92;28.90;;;;;;;3.96;69.55;98997.09;2161139;82;21694;-68
2021/03/04 02:52:58;;;;;;;65.52;29.25;;;;;;;3.99;70.04;98984.02;2161071;82;21888;-67
2021/03/04 02:56:00;;;;;;;69.72;30.20;;;;;;;4.01;70.48;98987.86;2161055;82;21155;-68
2021/03/04 02:59:03;;;;;;;72.22;32.80;;;;;;;3.99;70.92;98984.02;2161030;82;21167;-68
2021/03/04 03:02:05;;;;;;;69.20;30.80;;;;;;;3.94;70.88;98982.03;2161156;82;21285;-67
2021/03/04 03:05:07;;;;;;;74.67;33.33;;;;;;;3.90;71.44;98981.73;2161051;81;21313;-68
2021/03/04 03:08:09;;;;;;;74.70;33.02;;;;;;;3.87;71.60;98974.04;2161147;82;21591;-67
2021/03/04 03:11:11;;;;;;;69.60;32.13;;;;;;;3.84;70.98;98963.77;2161035;82;21178;-67
2021/03/04 03:14:13;;;;;;;77.25;35.45;;;;;;;3.81;71.17;98956.45;2161065;82;21148;-67
2021/03/04 03:17:15;;;;;;;76.12;35.00;;;;;;;3.78;71.44;98964.34;2161023;82;21603;-67
2021/03/04 03:20:17;;;;;;;79.07;34.38;;;;;;;3.72;72.10;98981.41;2161159;82;21309;-67
2021/03/04 03:23:20;;;;;;;75.28;33.70;;;;;;;3.67;71.38;98976.78;2161252;82;21306;-67
2021/03/04 03:26:22;;;;;;;77.80;35.08;;;;;;;3.64;71.78;98968.64;2161024;82;21654;-67
2021/03/04 03:29:24;;;;;;;79.97;35.30;;;;;;;3.61;71.77;98974.39;2161040;82;21151;-67
2021/03/04 03:32:26;;;;;;;76.47;33.38;;;;;;;3.57;71.24;98967.13;2161070;82;21139;-68
2021/03/04 03:35:28;;;;;;;77.70;34.70;;;;;;;3.56;72.01;98971.94;2161048;82;21155;-67
2021/03/04 03:38:30;;;;;;;81.20;34.92;;;;;;;3.55;71.88;98962.88;2161048;82;21135;-68
2021/03/04 03:41:32;;;;;;;81.67;36.15;;;;;;;3.54;71.78;98962.04;2161153;82;21591;-68
2021/03/04 03:44:34;;;;;;;82.62;36.20;;;;;;;3.55;71.62;98958.98;2161290;82;21309;-68
2021/03/04 03:47:36;;;;;;;80.15;36.75;;;;;;;3.54;71.64;98958.61;2161129;82;21705;-67
2021/03/04 03:50:39;;;;;;;81.72;36.90;;;;;;;3.55;71.42;98952.08;2161130;82;21337;-67
2021/03/04 03:53:41;;;;;;;76.12;32.65;;;;;;;3.54;71.66;98950.37;2161007;82;21135;-67
2021/03/04 03:56:43;;;;;;;79.82;35.92;;;;;;;3.50;72.01;98940.14;2161032;82;21273;-67
2021/03/04 03:59:45;;;;;;;79.10;36.45;;;;;;;3.49;71.59;98945.75;2161402;82;21115;-67
2021/03/04 04:02:47;;;;;;;86.30;36.10;;;;;;;3.50;71.79;98947.46;2161060;82;21143;-67
2021/03/04 04:05:49;;;;;;;84.80;36.35;;;;;;;3.50;71.60;98940.14;2172374;82;21761;-67
2021/03/04 04:08:51;;;;;;;81.47;36.53;;;;;;;3.49;71.59;98941.86;2178796;81;21280;-67
2021/03/04 04:11:53;;;;;;;84.90;36.73;;;;;;;3.47;71.27;98935.43;2178353;81;21139;-67
2021/03/04 04:14:55;;;;;;;79.20;36.60;;;;;;;3.49;71.27;98934.55;2178384;81;21720;-67
2021/03/04 04:17:57;;;;;;;71.15;33.15;;;;;;;3.49;71.15;98930.66;2178427;81;21253;-67
2021/03/04 04:20:59;;;;;;;82.20;34.80;;;;;;;3.47;71.41;98928.95;2178420;81;21724;-67
2021/03/04 04:24:01;;;;;;;83.22;35.95;;;;;;;3.45;71.27;98929.91;2178424;81;21262;-67
2021/03/04 04:27:03;;;;;;;79.32;35.73;;;;;;;3.42;71.06;98922.20;2178692;81;21268;-67
2021/03/04 04:30:06;;;;;;;84.00;35.95;;;;;;;3.40;71.47;98925.30;2178774;81;21280;-66
2021/03/04 04:33:08;;;;;;;80.07;33.40;;;;;;;3.41;71.17;98920.06;2178723;81;21265;-67
2021/03/04 04:36:10;;;;;;;76.50;33.45;;;;;;;3.41;71.12;98921.83;2178456;81;21280;-66
2021/03/04 04:39:12;;;;;;;77.35;33.33;;;;;;;3.42;71.04;98918.31;2178590;81;21285;-66
2021/03/04 04:42:14;;;;;;;73.45;32.23;;;;;;;3.44;71.05;98910.89;2178872;81;21280;-67
2021/03/04 04:45:16;;;;;;;74.87;31.70;;;;;;;3.43;70.96;98904.46;2178598;81;21737;-67
2021/03/04 04:48:18;;;;;;;71.10;30.85;;;;;;;3.45;70.97;98901.39;2178727;81;21744;-67
2021/03/04 04:51:20;;;;;;;73.15;32.67;;;;;;;3.45;70.96;98900.09;2178616;81;21293;-66
2021/03/04 04:54:22;;;;;;;75.28;32.58;;;;;;;3.45;70.79;98889.72;2178690;82;21713;-66
2021/03/04 04:57:25;;;;;;;78.20;32.73;;;;;;;3.43;70.83;98889.77;2178937;81;21146;-67
2021/03/04 05:00:27;;;;;;;77.75;32.88;;;;;;;3.44;70.56;98877.64;2150974;82;21296;-72
2021/03/04 05:03:29;;;;;;;83.72;35.85;;;;;;;3.42;70.55;98882.01;2178775;81;21571;-73
2021/03/04 05:06:31;;;;;;;79.95;33.60;;;;;;;3.44;70.39;98873.30;2178726;81;21154;-72
2021/03/04 05:09:33;;;;;;;72.03;30.17;;;;;;;3.45;70.32;98868.97;2178664;81;21272;-72
2021/03/04 05:12:35;;;;;;;69.87;29.23;;;;;;;3.44;70.22;98851.70;2178580;81;21713;-69
2021/03/04 05:15:38;;;;;;;74.97;31.00;;;;;;;3.47;70.07;98859.39;2178577;82;21589;-69
2021/03/04 05:18:40;;;;;;;68.62;30.77;;;;;;;3.47;70.00;98847.26;2178947;81;21158;-72
2021/03/04 05:21:42;;;;;;;69.80;29.90;;;;;;;3.47;69.99;98851.14;2178596;81;21770;-69
2021/03/04 05:24:44;;;;;;;65.60;27.75;;;;;;;3.52;69.92;98854.91;2179040;81;21317;-72
2021/03/04 05:27:46;;;;;;;64.97;27.35;;;;;;;3.52;69.69;98847.14;2178574;81;21268;-68
2021/03/04 05:30:48;;;;;;;65.95;27.73;;;;;;;3.60;69.64;98842.53;2178664;82;21792;-67
2021/03/04 05:33:50;;;;;;;66.82;29.35;;;;;;;3.62;69.77;98843.77;2178511;81;21332;-67
2021/03/04 05:36:52;;;;;;;64.03;27.05;;;;;;;3.64;69.70;98836.34;2178677;81;21741;-67
2021/03/04 05:39:54;;;;;;;69.90;29.27;;;;;;;3.71;69.62;98831.81;2178570;81;21308;-67
2021/03/04 05:42:56;;;;;;;67.87;29.70;;;;;;;3.76;69.55;98828.60;2178576;81;21288;-67
2021/03/04 05:45:58;;;;;;;66.92;29.20;;;;;;;3.82;69.39;98827.55;2178540;81;21289;-67
2021/03/04 05:49:00;;;;;;;62.58;26.73;;;;;;;3.84;69.33;98829.66;2178572;81;21269;-67
2021/03/04 05:52:03;;;;;;;63.60;27.75;;;;;;;3.90;69.07;98833.34;2178518;81;21717;-67
2021/03/04 05:55:05;;;;;;;65.85;26.75;;;;;;;3.97;69.25;98833.53;2150527;82;21268;-67
2021/03/04 05:58:08;;;;;;;68.50;27.93;;;;;;;4.06;69.37;98839.31;2178969;82;21158;-67
2021/03/04 06:01:10;;;;;;;67.87;26.40;;;;;;;4.10;68.96;98832.66;2178539;81;21268;-67
2021/03/04 06:04:12;;;;;;;68.65;28.15;;;;;;;4.18;68.78;98835.02;2178628;81;21582;-67
2021/03/04 06:07:14;;;;;;;63.73;26.87;;;;;;;4.29;68.68;98822.47;2161947;81;21131;-66
2021/03/04 06:10:16;;;;;;;62.00;25.52;;;;;;;4.39;68.83;98816.51;2161089;82;21155;-67
2021/03/04 06:13:18;;;;;;;61.23;27.55;;;;;;;4.45;68.53;98825.41;2161085;82;21453;-67
2021/03/04 06:16:20;;;;;;;65.65;26.82;;;;;;;4.49;68.51;98815.73;2161122;82;21167;-68
2021/03/04 06:19:22;;;;;;;63.68;26.82;;;;;;;4.56;68.34;98816.37;2161221;82;21261;-67
2021/03/04 06:22:24;;;;;;;60.90;26.42;;;;;;;4.60;68.53;98820.09;2161226;82;21143;-67
2021/03/04 06:25:26;;;;;;;61.77;26.30;;;;;;;4.63;68.49;98817.38;2161120;82;21131;-67
2021/03/04 06:28:28;;;;;;;62.85;27.48;;;;;;;4.72;68.54;98833.53;2161059;82;21175;-67
2021/03/04 06:31:30;;;;;;;60.70;25.15;;;;;;;4.74;68.44;98835.18;2161072;82;21167;-66
2021/03/04 06:34:33;;;;;;;65.70;27.80;;;;;;;4.81;68.38;98844.44;2161171;82;21717;-67
2021/03/04 06:37:35;;;;;;;59.48;23.42;;;;;;;4.83;68.66;98845.22;2140060;82;21273;-67
2021/03/04 06:40:37;;;;;;;62.00;25.27;;;;;;;4.95;68.25;98844.38;2161093;82;21123;-67
2021/03/04 06:43:39;;;;;;;63.92;26.25;;;;;;;5.08;68.15;98840.85;2161095;82;21183;-68
2021/03/04 06:46:42;;;;;;;;;;;;;;;5.20;68.13;98846.86;2163565;82;21135;-68
2021/03/04 06:49:44;;;;;;;65.30;26.03;;;;;;;5.28;68.15;98852.63;2161165;82;20147;-67
2021/03/04 06:52:46;;;;;;;56.25;24.12;;;;;;;5.33;67.96;98851.13;2161340;82;21272;-68
2021/03/04 06:55:49;;;;;;;;;;;;;;;5.32;67.70;98861.16;2163475;82;21324;-67
2021/03/04 06:58:51;;;;;;;64.97;28.65;;;;;;;5.30;67.83;98874.67;2161108;82;20517;-67
2021/03/04 07:01:53;;;;;;;62.95;26.93;;;;;;;5.27;67.65;98863.09;2161059;82;21147;-68
2021/03/04 07:04:55;;;;;;;66.25;29.23;;;;;;;5.27;68.71;98863.09;2162244;82;21103;-67
2021/03/04 07:07:57;;;;;;;64.05;26.97;;;;;;;5.27;68.19;98869.59;2178487;81;21276;-67
2021/03/04 07:10:59;;;;;;;59.10;26.73;;;;;;;5.28;68.81;98858.28;2178466;82;21284;-67
2021/03/04 07:14:01;;;;;;;59.88;27.65;;;;;;;5.28;68.81;98858.28;2178471;81;21264;-68
2021/03/04 07:17:03;;;;;;;64.42;27.22;;;;;;;5.30;69.04;98865.13;2178580;81;21740;-69
2021/03/04 07:20:06;;;;;;;66.15;28.05;;;;;;;5.37;69.05;98850.11;2178502;81;21597;-67
2021/03/04 07:23:08;;;;;;;62.55;27.82;;;;;;;5.47;68.98;98858.41;2178438;81;21304;-69
2021/03/04 07:26:10;;;;;;;61.75;27.60;;;;;;;5.49;68.75;98850.10;2178498;81;21256;-67
2021/03/04 07:29:12;;;;;;;68.92;30.82;;;;;;;5.54;69.18;98850.75;2178956;81;21135;-68
2021/03/04 07:32:14;;;;;;;69.15;28.23;;;;;;;5.54;69.01;98850.28;2178454;81;21280;-69
2021/03/04 07:35:16;;;;;;;59.35;27.52;;;;;;;5.60;69.00;98857.47;2150644;82;21712;-68
2021/03/04 07:38:18;;;;;;;65.28;29.10;;;;;;;5.65;69.00;98859.44;2178423;81;21281;-68
2021/03/04 07:41:20;;;;;;;62.10;28.32;;;;;;;5.67;69.79;98843.30;2178481;81;21294;-69
2021/03/04 07:44:23;;;;;;;65.35;27.17;;;;;;;5.73;69.03;98852.14;2178464;81;21297;-68
2021/03/04 07:47:25;;;;;;;58.95;25.32;;;;;;;5.76;69.15;98846.84;2178450;81;21265;-67
2021/03/04 07:50:28;;;;;;;63.92;28.10;;;;;;;5.73;69.23;98846.94;2178526;81;21289;-68
2021/03/04 07:53:31;;;;;;;64.55;28.17;;;;;;;5.76;69.88;98847.28;2178424;82;21301;-68
2021/03/04 07:56:33;;;;;;;66.37;29.07;;;;;;;5.80;69.36;98852.29;2178454;81;21253;-67
2021/03/04 07:59:35;;;;;;;60.90;28.77;;;;;;;5.85;69.58;98851.66;2178784;81;21288;-69
2021/03/04 08:02:37;;;;;;;65.75;28.80;;;;;;;5.89;69.92;98866.70;2178805;81;21142;-68
2021/03/04 08:05:39;;;;;;;64.30;28.73;;;;;;;5.92;69.96;98848.79;2174435;81;21285;-68
2021/03/04 08:08:42;;;;;;;68.35;32.00;;;;;;;5.94;70.08;98855.63;2161320;82;21265;-67
2021/03/04 08:11:45;;;;;;;73.75;30.52;;;;;;;5.97;70.26;98845.55;2160981;82;21277;-67
2021/03/04 08:14:47;;;;;;;67.37;29.67;;;;;;;5.97;70.11;98847.72;2161205;82;21725;-67
2021/03/04 08:17:49;;;;;;;71.60;31.02;;;;;;;5.96;70.72;98843.41;2161343;82;21305;-68
2021/03/04 08:20:51;;;;;;;70.78;32.98;;;;;;;5.98;70.63;98855.09;2161581;82;21586;-68
2021/03/04 08:23:53;;;;;;;71.33;34.13;;;;;;;6.03;70.82;98859.64;2161194;82;21337;-70
2021/03/04 08:26:55;;;;;;;70.80;31.10;;;;;;;6.05;70.58;98860.44;2161582;82;21305;-67
2021/03/04 08:29:57;;;;;;;74.47;34.60;;;;;;;6.07;70.68;98854.70;2161550;82;21123;-68
2021/03/04 08:32:59;;;;;;;75.25;35.23;;;;;;;6.04;71.64;98845.72;2161188;82;21717;-67
2021/03/04 08:36:02;;;;;;;79.03;34.92;;;;;;;6.00;71.48;98856.70;2161191;82;21725;-67
2021/03/04 08:39:05;;;;;;;77.50;33.80;;;;;;;5.97;71.60;98853.36;2161474;82;21281;-66
2021/03/04 08:42:07;;;;;;;78.02;36.10;;;;;;;5.95;71.53;98854.73;2161204;82;21273;-67
2021/03/04 08:45:09;;;;;;;76.65;36.15;;;;;;;5.92;71.37;98849.66;2161423;82;21332;-68
2021/03/04 08:48:11;;;;;;;75.05;32.48;;;;;;;5.94;71.54;98844.38;2161204;82;21131;-67
2021/03/04 08:51:14;;;;;;;74.65;35.13;;;;;;;5.92;71.27;98840.98;2140371;82;21720;-67
2021/03/04 08:54:16;;;;;;;81.10;37.17;;;;;;;5.92;71.48;98842.28;2161168;82;21285;-67
2021/03/04 08:57:18;;;;;;;71.33;33.58;;;;;;;5.96;71.87;98829.09;2161316;82;21103;-68
2021/03/04 09:00:20;;;;;;;82.90;38.08;;;;;;;6.03;71.53;98821.88;2161193;82;21104;-67
2021/03/04 09:03:22;;;;;;;81.50;37.23;;;;;;;6.13;72.15;98823.17;2161133;82;21115;-67
2021/03/04 09:06:24;;;;;;;75.60;34.85;;;;;;;6.19;71.42;98816.86;2161348;82;21563;-67
2021/03/04 09:09:27;;;;;;;80.55;39.08;;;;;;;6.19;71.05;98818.16;2140065;82;21269;-67
2021/03/04 09:12:29;;;;;;;77.40;36.60;;;;;;;6.18;71.86;98812.12;2161160;82;21338;-69
2021/03/04 09:15:31;;;;;;;77.72;35.43;;;;;;;6.27;71.04;98815.25;2161117;82;21261;-67
2021/03/04 09:18:33;;;;;;;79.72;37.42;;;;;;;6.25;70.52;98817.92;2161140;82;21136;-67
2021/03/04 09:21:35;;;;;;;78.35;35.13;;;;;;;6.33;71.08;98813.66;2161096;82;21183;-69
2021/03/04 09:24:37;;;;;;;82.72;38.75;;;;;;;6.44;70.88;98811.44;2161115;82;21139;-67
2021/03/04 09:27:39;;;;;;;85.67;41.00;;;;;;;6.45;70.57;98807.93;2161147;82;21159;-68
2021/03/04 09:30:41;;;;;;;79.03;38.38;;;;;;;6.52;70.96;98803.27;2161382;82;21293;-67
2021/03/04 09:33:43;;;;;;;79.72;37.63;;;;;;;6.70;71.06;98808.12;2161506;82;21300;-67
2021/03/04 09:36:45;;;;;;;80.15;39.03;;;;;;;6.88;70.36;98805.98;2161250;82;21281;-67
2021/03/04 09:39:47;;;;;;;86.53;42.80;;;;;;;6.93;69.27;98801.38;2161093;82;21167;-67
2021/03/04 09:42:50;;;;;;;78.25;37.33;;;;;;;7.08;69.21;98788.10;2161134;82;21752;-67
2021/03/04 09:45:53;;;;;;;78.20;38.58;;;;;;;7.19;68.50;98795.88;2161156;82;21107;-67
2021/03/04 09:48:55;;;;;;;79.47;39.67;;;;;;;7.21;68.78;98786.20;2140063;82;21257;-66
2021/03/04 09:51:57;;;;;;;77.47;39.60;;;;;;;7.37;68.04;98788.47;2161186;82;21580;-67
2021/03/04 09:55:00;;;;;;;80.57;38.40;;;;;;;7.45;68.49;98790.22;2161095;82;21159;-69
2021/03/04 09:58:02;;;;;;;80.50;38.45;;;;;;;7.69;67.47;98796.48;2161146;82;21155;-67
2021/03/04 10:01:04;;;;;;;83.67;44.53;;;;;;;7.70;66.52;98781.20;2161125;82;21705;-67
2021/03/04 10:04:06;;;;;;;;;;;;;;;7.57;67.91;98786.19;2163622;82;21128;-68
2021/03/04 10:07:09;;;;;;;90.42;43.20;;;;;;;7.49;67.70;98793.55;2161121;82;20540;-67
2021/03/04 10:10:11;;;;;;;86.70;42.73;;;;;;;7.45;68.11;98784.17;2161100;82;21166;-68
2021/03/04 10:13:13;;;;;;;84.25;41.63;;;;;;;7.39;67.57;98792.30;2161119;82;21143;-69
2021/03/04 10:16:15;;;;;;;78.70;38.13;;;;;;;7.54;67.81;98792.00;2161143;82;21132;-68
2021/03/04 10:19:17;;;;;;;82.75;43.13;;;;;;;7.72;67.93;98791.57;2161100;82;21603;-68
2021/03/04 10:22:19;;;;;;;78.22;37.35;;;;;;;7.78;66.71;98789.95;2161044;82;21667;-70
2021/03/04 10:25:22;;;;;;;91.42;46.30;;;;;;;7.85;66.16;98804.86;2161419;82;21294;-67
2021/03/04 10:28:25;;;;;;;80.32;42.33;;;;;;;7.94;66.83;98788.71;2161054;82;21702;-67
2021/03/04 10:31:27;;;;;;;;;;;;;;;7.96;65.61;98794.72;2163525;82;21128;-67
2021/03/04 10:34:30;;;;;;;82.45;42.83;;;;;;;8.02;65.20;98807.46;2160700;82;21197;-68
2021/03/04 10:37:32;;;;;;;84.25;41.75;;;;;;;8.02;65.87;98792.26;2161357;82;21289;-67
2021/03/04 10:40:34;;;;;;;82.08;41.00;;;;;;;7.95;64.59;98800.86;2161084;82;21135;-67
2021/03/04 10:43:36;;;;;;;74.00;39.10;;;;;;;8.05;64.95;98790.31;2161057;82;21555;-67
2021/03/04 10:46:38;;;;;;;80.32;40.48;;;;;;;8.18;64.47;98789.70;2161115;82;21142;-69
2021/03/04 10:49:40;;;;;;;74.60;38.67;;;;;;;8.45;64.10;98786.14;2161094;82;21598;-72
2021/03/04 10:52:42;;;;;;;73.47;38.08;;;;;;;8.61;63.04;98778.32;2161237;82;21302;-67
2021/03/04 10:55:44;;;;;;;74.35;37.33;;;;;;;8.72;62.00;98775.11;2161070;82;21135;-67
2021/03/04 10:58:46;;;;;;;72.27;37.45;;;;;;;8.83;61.04;98773.63;2161095;82;21143;-68
2021/03/04 11:01:48;;;;;;;74.20;38.20;;;;;;;8.78;61.34;98790.02;2161339;82;21325;-67
2021/03/04 11:04:51;;;;;;;76.25;39.05;;;;;;;8.74;61.58;98771.97;2161044;82;21116;-67
2021/03/04 11:07:53;;;;;;;71.50;35.05;;;;;;;8.83;61.72;98762.30;2161127;81;21313;-67
2021/03/04 11:10:55;;;;;;;71.00;36.95;;;;;;;9.14;60.44;98788.09;2161311;82;21313;-66
2021/03/04 11:13:57;;;;;;;65.72;34.67;;;;;;;9.34;60.44;98752.94;2161055;82;21158;-67
2021/03/04 11:17:00;;;;;;;71.07;37.93;;;;;;;9.58;58.37;98757.20;2160946;82;21147;-66
2021/03/04 11:20:02;;;;;;;67.08;37.00;;;;;;;9.89;60.21;98746.26;2161412;82;21274;-66
2021/03/04 11:23:04;;;;;;;;;;;;;;;10.31;58.64;98731.96;2163595;82;21587;-67
2021/03/04 11:26:07;;;;;;;60.05;31.65;;;;;;;10.31;56.12;98764.73;2161288;82;20225;-67
2021/03/04 11:29:10;;;;;;;58.10;30.65;;;;;;;10.04;55.77;98740.55;2160883;82;21148;-67
2021/03/04 11:32:12;;;;;;;55.10;28.65;;;;;;;9.87;55.67;98744.20;2161356;82;21313;-67
2021/03/04 11:35:14;;;;;;;64.50;35.88;;;;;;;9.76;56.15;98724.34;2139903;82;21103;-67
2021/03/04 11:38:16;;;;;;;60.52;30.80;;;;;;;9.65;57.70;98740.68;2161033;82;21158;-67
2021/03/04 11:41:18;;;;;;;61.48;32.70;;;;;;;9.56;57.09;98720.28;2161049;82;21124;-68
2021/03/04 11:44:20;;;;;;;62.53;33.88;;;;;;;9.37;57.12;98720.05;2161337;82;21277;-67
2021/03/04 11:47:22;;;;;;;63.20;34.27;;;;;;;9.36;57.38;98704.78;2161225;82;21286;-67
2021/03/04 11:50:25;;;;;;;60.88;33.28;;;;;;;9.68;57.79;98699.91;2161727;82;21159;-68
2021/03/04 11:53:27;;;;;;;60.28;31.45;;;;;;;9.70;57.12;98692.81;2161222;82;21131;-68
2021/03/04 11:56:29;;;;;;;59.35;29.00;;;;;;;9.41;55.62;98701.92;2161169;82;21139;-67
2021/03/04 11:59:31;;;;;;;62.53;32.95;;;;;;;9.27;55.83;98716.27;2161445;82;21139;-68
2021/03/04 12:02:33;;;;;;;58.05;30.90;;;;;;;9.36;57.22;98681.70;2161223;82;21301;-67
2021/03/04 12:05:35;;;;;;;58.42;31.90;;;;;;;9.75;55.71;98678.96;2161222;82;21119;-67
2021/03/04 12:08:38;;;;;;;55.67;29.15;;;;;;;10.16;54.99;98685.27;2161060;82;21317;-68
2021/03/04 12:11:41;;;;;;;57.88;29.77;;;;;;;10.00;53.68;98685.36;2161196;82;21171;-67
2021/03/04 12:14:43;;;;;;;59.05;30.62;;;;;;;9.77;54.48;98682.80;2161329;82;21273;-67
2021/03/04 12:17:45;;;;;;;59.00;31.27;;;;;;;9.86;56.41;98673.92;2161230;82;21281;-69
2021/03/04 12:20:48;;;;;;;55.15;30.92;;;;;;;10.29;55.24;98651.27;2161335;82;21619;-69
2021/03/04 12:23:50;;;;;;;61.33;31.02;;;;;;;10.48;55.02;98647.05;2161201;82;21297;-68
2021/03/04 12:26:53;;;;;;;55.70;28.73;;;;;;;10.72;55.08;98646.78;2161291;82;21285;-68
2021/03/04 12:29:55;;;;;;;56.48;31.45;;;;;;;10.73;52.10;98658.97;2161063;82;21273;-69
2021/03/04 12:32:57;;;;;;;55.12;30.62;;;;;;;10.72;53.40;98655.13;2161240;82;21718;-68
2021/03/04 12:35:59;;;;;;;54.50;28.67;;;;;;;10.65;52.04;98654.67;2161661;82;21337;-67
2021/03/04 12:39:01;;;;;;;54.05;28.87;;;;;;;10.36;52.10;98637.70;2161551;82;21281;-68
2021/03/04 12:42:04;;;;;;;54.55;29.45;;;;;;;10.43;53.46;98633.38;2161211;82;21282;-67
2021/03/04 12:45:06;;;;;;;58.15;30.00;;;;;;;10.56;52.39;98629.87;2161310;82;21143;-68
2021/03/04 12:48:08;;;;;;;54.23;27.25;;;;;;;10.68;52.79;98623.00;2161216;82;21721;-67
2021/03/04 12:51:10;;;;;;;56.18;28.42;;;;;;;10.69;51.34;98619.44;2161170;82;21306;-68
2021/03/04 12:54:12;;;;;;;54.27;28.15;;;;;;;10.39;50.17;98630.12;2161139;82;21281;-68
2021/03/04 12:57:14;;;;;;;54.80;29.27;;;;;;;10.04;51.71;98640.53;2161122;82;21139;-68
2021/03/04 13:00:16;;;;;;;55.73;28.85;;;;;;;10.13;52.78;98622.53;2161203;82;21713;-67
2021/03/04 13:03:18;;;;;;;54.18;27.20;;;;;;;10.27;52.38;98615.98;2161158;82;21614;-67
2021/03/04 13:06:21;;;;;;;52.27;24.95;;;;;;;10.33;51.65;98630.45;2161280;82;21281;-67
2021/03/04 13:09:23;;;;;;;55.43;28.32;;;;;;;10.10;50.97;98629.28;2171057;81;21154;-67
2021/03/04 13:12:25;;;;;;;50.40;24.60;;;;;;;10.19;52.19;98615.61;2141833;82;21290;-67
2021/03/04 13:15:27;;;;;;;52.15;26.42;;;;;;;10.45;51.44;98623.64;2171395;82;21267;-69
2021/03/04 13:18:31;;;;;;;60.20;33.02;;;;;;;10.70;51.34;98601.45;2171281;82;21300;-68
2021/03/04 13:21:33;;;;;;;62.53;34.25;;;;;;;10.95;52.52;98609.48;2171428;82;21520;-67
2021/03/04 13:24:35;;;;;;;57.10;29.32;;;;;;;11.02;52.66;98604.20;2171321;82;21297;-67
2021/03/04 13:27:37;;;;;;;50.78;24.75;;;;;;;11.03;51.76;98609.38;2171319;82;21560;-68
2021/03/04 13:30:39;;;;;;;54.93;30.45;;;;;;;11.29;50.05;98584.44;2171389;82;21304;-69
2021/03/04 13:33:41;;;;;;;58.52;32.53;;;;;;;11.42;51.09;98602.38;2171398;82;21717;-68
2021/03/04 13:36:44;;;;;;;62.30;32.42;;;;;;;11.35;51.27;98602.42;2171295;82;21728;-67
2021/03/04 13:39:46;;;;;;;59.45;32.48;;;;;;;11.20;51.31;98606.91;2141696;82;21265;-67
2021/03/04 13:42:48;;;;;;;57.85;29.82;;;;;;;11.24;51.77;98594.43;2171317;82;21131;-69
2021/03/04 13:45:51;;;;;;;52.90;27.75;;;;;;;11.05;51.62;98585.64;2141771;82;22442;-68
2021/03/04 13:48:53;;;;;;;61.33;30.88;;;;;;;10.89;50.75;98604.20;2171680;82;21131;-67
2021/03/04 13:51:55;;;;;;;59.15;31.62;;;;;;;10.78;51.08;98589.63;2171419;82;21162;-68
2021/03/04 13:54:57;;;;;;;58.45;31.27;;;;;;;10.90;51.30;98583.55;2171290;82;21276;-67
2021/03/04 13:57:59;;;;;;;59.88;31.77;;;;;;;10.82;51.73;98591.08;2171415;82;21143;-67
2021/03/04 14:01:01;;;;;;;61.83;31.70;;;;;;;10.56;52.53;98595.78;2171271;82;21610;-67
2021/03/04 14:04:04;;;;;;;53.78;29.87;;;;;;;10.63;52.80;98592.76;2171256;82;21297;-67
2021/03/04 14:07:06;;;;;;;55.40;29.82;;;;;;;10.67;52.87;98583.27;2172528;81;21305;-67